KILE

Skylark Field Airport

Killeen, Texas, USA
METAR KILE 220156Z AUTO 15008KT 10SM CLR 24/19 A2996 RMK AO2 SLP155 T02390194
Observed Flight Rules
May-22 @ 01:56 UTC (40 minutes ago) Visual Flight Rules
Wind Visibility Clouds
150° at 8 knots 10 miles
  • Clear skies
Temperatures Readings
Current 24°C / 75°F
Dewpoint 19°C / 66°F
Humidity 74%
Altimeter 29.96" Hg
Pressure 1015.5 hPa
Elevation 258
METAR KILE 220156Z AUTO 15008KT 10SM CLR 24/19 A2996 RMK AO2 SLP155 T02390194
Observed Flight Rules
May-22 @ 01:56 UTC
(40 minutes ago)
VFR
Wind Visibility
150° at 8 knots 10 miles
Clouds
  • Clear skies
Temperature Dewpoint
24°C / 75°F 19°C / 66°F
Humidity Altimeter Pressure
74% 29.96" Hg 1015.5 hPa